Commit Graph

687 Commits

Author SHA1 Message Date
h_vogt 52e01e0f41 version 21 2010-06-12 15:17:24 +00:00
h_vogt ffb7c96f4f version 21 2010-06-12 15:10:13 +00:00
h_vogt ce1be5509e manpage updates 2010-06-12 10:13:15 +00:00
h_vogt 41744de629 update BSIM 4.6.5 2010-06-12 09:00:32 +00:00
h_vogt 24094bc623 notice: help file outdated 2010-06-11 08:40:09 +00:00
h_vogt 0c3cbd5410 bug report 3008000 2010-06-04 20:16:43 +00:00
h_vogt ba48d85de1 return NULL 2010-06-03 22:17:25 +00:00
h_vogt a633a0d50f update bsim4soi to vers. 4.3.1 2010-06-03 22:11:20 +00:00
h_vogt 4e6bc6590a *** empty log message *** 2010-05-30 17:22:30 +00:00
h_vogt b441769118 update for 'make dist' 2010-05-30 09:57:30 +00:00
h_vogt 9f6a32ae85 updates for 'make dist' 2010-05-30 09:33:59 +00:00
h_vogt 92abb04185 update on B source pwl handling 2010-05-27 19:20:10 +00:00
h_vogt 1fe8cbbf26 xspice api update 2010-05-26 05:51:04 +00:00
h_vogt 806227a164 scientific notation of level parameter 2010-05-22 15:46:41 +00:00
h_vogt 2fe85974ce ternary fcn in numparam bugfix 2936702 2010-05-21 20:58:31 +00:00
h_vogt dd66fc7220 abort if .inc fails 2010-05-16 16:31:03 +00:00
h_vogt 1cf306f8e8 remove bugs in processing of lines 2010-05-16 11:55:07 +00:00
h_vogt 63c6260696 update fcn inp_bsource_compat 2010-05-14 22:39:56 +00:00
h_vogt 8ddd172cc9 tmalloc patch R Larice 2010-05-14 20:26:54 +00:00
h_vogt 0bebd1e9e0 new replacement of gnd by 0 2010-05-12 20:48:23 +00:00
h_vogt d850fdd7a3 fcn finishLine: add e. or h. to token inside i(...) 2010-05-10 21:57:36 +00:00
h_vogt 7be4dc785e derivatives for min, max 2010-05-09 18:57:31 +00:00
h_vogt 5d3c29cb77 ngbehavior 2010-05-09 18:46:56 +00:00
h_vogt 9548bdd710 tiny update 2010-05-09 12:47:43 +00:00
h_vogt e5e54f9270 correct resistor expression line 3707 2010-05-08 15:47:24 +00:00
h_vogt 9eaba91bf2 update on E, G sources with expressions 2010-05-08 14:21:31 +00:00
h_vogt bfd1b3cb23 L, C implementation: avoid substraction from a builtin 1.0 2010-05-08 09:36:57 +00:00
dwarning 1ba2d635c8 correct parsing of integer model parameter 2010-04-26 20:28:58 +00:00
h_vogt e66ef33c57 ngspice compatibility mode 2010-04-23 22:00:40 +00:00
dwarning 49aadcca58 new operation in control blocks 2010-04-11 09:04:55 +00:00
dwarning 5fcf9c2afe ternary operation in control blocks 2010-04-11 08:49:05 +00:00
dwarning 112261297d Bill Swartz patch 2010-03-25 22:44:37 +00:00
h_vogt 625b3d14fc no crash after 'unset undefined' 2010-03-21 21:23:47 +00:00
h_vogt df5931e570 circuit flag CKTvarHertz 2010-03-20 17:35:56 +00:00
h_vogt 9e2f02fbe2 HERTZ added to B source 2010-03-20 15:32:23 +00:00
h_vogt 85788591ff remove 291,292 2010-03-16 23:10:18 +00:00
dwarning 7254de579c no message 2010-03-13 11:53:13 +00:00
dwarning 4adb944a10 no message 2010-03-09 19:31:40 +00:00
h_vogt 288e0b7214 patches R. Larice 2010-03-08 22:20:25 +00:00
h_vogt 486ae1b66e patch R. Larice Feb. 28, add time and temper varianbles to B source 2010-03-07 19:53:32 +00:00
h_vogt 6f00b0e12a correct date 2010-03-07 16:00:45 +00:00
h_vogt 9bdf85c43c fcn sgn() 2010-03-07 15:59:08 +00:00
dwarning b89648441b no message 2010-03-07 08:54:43 +00:00
dwarning 7c5e1a5c94 no message 2010-03-07 00:14:29 +00:00
dwarning 54046ea353 no message 2010-03-03 20:03:54 +00:00
dwarning 006666ee7f no message 2010-02-28 17:52:43 +00:00
h_vogt 75d891e4c0 new parser for B source 2010-02-28 16:00:40 +00:00
h_vogt 4068f498c6 command wrdata 2010-02-27 21:11:30 +00:00
h_vogt 5221bffddf pwl td= r= 2010-02-26 22:55:40 +00:00
h_vogt 76feebbbfa various bug fixes 2010-02-25 21:43:03 +00:00
dwarning da04a0c747 no message 2010-02-22 21:00:52 +00:00
dwarning ff53d7218f bsimsoi update to 4.3 2010-02-21 13:51:18 +00:00
h_vogt c7470aa895 line endings 2010-02-15 10:28:48 +00:00
h_vogt 71c371485c K&R->ANSI patches by R. Larice 2010-02-13 16:01:56 +00:00
h_vogt 07f90563dc patches R. Larice 2010-02-13 14:47:45 +00:00
h_vogt 31203ce2ab macro ERROR -> MERROR 2010-02-11 22:32:10 +00:00
h_vogt c6088c8db1 use format (__printf__, 1, 2) 2010-02-11 21:51:09 +00:00
h_vogt d7d5a38583 patches by R. Larice 2010-02-08 21:15:17 +00:00
h_vogt f721fdf782 64 bit support 2010-02-08 20:25:30 +00:00
h_vogt 0337caea00 *** empty log message *** 2010-02-07 20:57:12 +00:00
dwarning 888b9fddb3 no message 2010-02-07 18:16:42 +00:00
h_vogt df4428b239 bug. no 2936702 2010-02-07 09:51:03 +00:00
dwarning dea3d778cf no message 2010-01-30 14:12:51 +00:00
dwarning c1e04b773a no message 2010-01-30 13:29:48 +00:00
h_vogt 005dae2462 more characts for real number params 2010-01-29 22:33:59 +00:00
dwarning 4eb6e85519 no message 2010-01-28 20:19:16 +00:00
dwarning 51f699a4dd no message 2010-01-27 21:30:59 +00:00
dwarning a31e41883d no message 2010-01-19 21:49:53 +00:00
h_vogt 80af4f24a6 SystemParametersInfo() 2010-01-17 19:29:32 +00:00
h_vogt 3959b48afb ps output for X11 2010-01-17 19:06:03 +00:00
dwarning 86fc4beff0 no message 2010-01-17 17:24:10 +00:00
h_vogt d8810a841a patches by R. Larice 2010-01-17 16:40:22 +00:00
h_vogt 204362044e .gllobal bug 2010-01-17 14:49:42 +00:00
dwarning 4479aa7d5c no message 2010-01-16 22:29:26 +00:00
h_vogt ecf5665104 patch for translate(), R. Larice, .global bug 2010-01-15 22:05:23 +00:00
h_vogt dc7d2d01a2 hardcopy button error removed 2010-01-06 22:48:21 +00:00
h_vogt 7dc6417e6d add xfont, wfont, wfont_size variables 2010-01-02 18:05:07 +00:00
h_vogt f34a09b540 gnuplot update 2010-01-02 15:24:03 +00:00
h_vogt b500f3e32c calling gnuplot via xterm 2010-01-01 13:13:48 +00:00
h_vogt 2c5ed4f83e gnuplot updates 2009-12-31 15:42:28 +00:00
h_vogt 2dc814f613 patches by R. Larice 2009-12-31 15:37:08 +00:00
h_vogt 46e6df66ce gnuplot enhancements (for Windows) 2009-12-30 13:23:57 +00:00
h_vogt c1f06ba5c4 patch by R. Larice 2009-12-29 18:18:47 +00:00
h_vogt 28d5114f43 comments, new examples 2009-12-28 08:34:55 +00:00
h_vogt 8cee489660 bugfix in com_meas() 2009-12-22 15:03:58 +00:00
h_vogt 57097463ee xspice examples 2009-12-21 18:23:55 +00:00
h_vogt 70b2408f39 updates for .measure
new example files
2009-12-21 18:17:38 +00:00
h_vogt d6350ca86d add vectors to meas 2009-12-21 00:27:15 +00:00
h_vogt 248e44b883 new measure commands 2009-12-20 16:43:51 +00:00
h_vogt 99533fa109 start value for sine 2009-12-20 08:44:50 +00:00
pnenzi aa93968573 Fixed bug in time computation for vsrc and isrc with xspice extensions. 2009-12-19 18:15:03 +00:00
h_vogt 68b06c7a73 comments 2009-12-19 16:04:22 +00:00
h_vogt 5571e9b9fa source file path as additional search path 2009-12-19 09:18:03 +00:00
dwarning b66562316d no message 2009-12-18 17:30:24 +00:00
dwarning 823b8e78de no message 2009-12-18 17:00:49 +00:00
h_vogt 82d46a68c8 '^' added to is_arith_char() in string.c 2009-12-12 17:40:20 +00:00
h_vogt b9512bbed1 .plot tran vout1 2009-12-12 11:48:06 +00:00
h_vogt 8a2f81f61f warning: .meas not possible with -b 2009-12-11 17:18:03 +00:00
h_vogt 974585af8c bug 2909730 2009-12-11 16:26:17 +00:00
dwarning ddc003fd61 no message 2009-12-10 21:03:38 +00:00
h_vogt 400100d9c6 pipe mode option -p 2009-12-07 21:42:09 +00:00
h_vogt 71104809b2 xbrushwidth settable from keyboard 2009-12-07 21:16:55 +00:00
dwarning 3b0b4ff454 no message 2009-12-06 18:31:12 +00:00
h_vogt 73d241fe69 function declarator to new format 2009-11-29 15:23:51 +00:00
h_vogt 486ff89800 postscript to file 2009-11-29 15:09:13 +00:00
dwarning 8d93851088 no message 2009-11-26 20:05:53 +00:00
h_vogt 6d13becdb7 bug no.2902374 fixed 2009-11-24 21:30:43 +00:00
h_vogt 514c8e8573 memory allocation struct pwldata->vals 2009-11-21 22:21:14 +00:00
h_vogt 3c094b5f1f postscrpit output allows black or white background 2009-11-20 22:43:17 +00:00
h_vogt 26cbf742fc postscript hardcopy 2009-11-19 22:47:03 +00:00
dwarning 284e1d546e no message 2009-11-18 21:20:54 +00:00
dwarning 1fb0bd91c5 no message 2009-11-18 21:20:05 +00:00
h_vogt 3f0b344a82 comments added 2009-11-17 22:51:55 +00:00
dwarning 1cfd7d82fe no message 2009-11-17 19:29:34 +00:00
h_vogt 06dd0263c0 VC console app 2009-11-16 21:45:12 +00:00
h_vogt 7b1f733190 enable compilation for Windows console app 2009-11-16 19:52:51 +00:00
h_vogt 13819432bd flag for compatibility mode 2009-11-15 21:22:04 +00:00
pnenzi f991322440 Updated for release reowrk-20 2009-11-15 13:06:25 +00:00
dwarning 9c231c5ffd no message 2009-11-09 09:16:25 +00:00
dwarning fb004a890e no message 2009-11-08 09:26:51 +00:00
h_vogt c579717d00 replace strdup by copy 2009-11-07 11:14:54 +00:00
h_vogt 8d7356970b updating windows 2009-10-31 11:11:13 +00:00
dwarning 74e42635ec no message 2009-10-24 06:28:40 +00:00
dwarning d85ab90a27 no message 2009-10-18 13:46:40 +00:00
h_vogt 9fb0d31390 MS Visual Studio: build date, "quit" button 2009-10-18 10:32:11 +00:00
h_vogt 3feb4377a6 initialize variable history_file 2009-10-11 16:54:52 +00:00
h_vogt 5e438cb6ed initialize variable history_file 2009-10-11 16:54:51 +00:00
dwarning eed6d11fd7 no message 2009-10-11 08:51:48 +00:00
h_vogt 1ff1fc5a6c version 20, update for Cygwin 2009-10-04 15:57:10 +00:00
dwarning 52722a3a64 no message 2009-10-04 12:28:24 +00:00
dwarning b1bcf130e1 no message 2009-10-04 11:50:04 +00:00
dwarning 9ded135794 no message 2009-10-04 07:32:29 +00:00
h_vogt 3c5382eb22 typo removed 2009-09-30 22:24:21 +00:00
h_vogt 5be507a97f command sysinfo 2009-09-30 22:22:36 +00:00
h_vogt 5b13d38ebe CVS header 2009-09-26 21:03:44 +00:00
h_vogt 6d874cf427 CVS header 2009-09-26 21:02:28 +00:00
pnenzi 2ff50ea37d Updated BSIM4 code to 4.6.5 (source and drain diode currents) 2009-09-22 09:05:20 +00:00
h_vogt 2eba12d518 bugfix no. 2859013, comments 2009-09-20 20:28:12 +00:00
h_vogt 881908ec47 bug no. 2859013 2009-09-19 21:18:04 +00:00
h_vogt 7ec7495457 tran setup info, cleanup 2009-09-19 14:16:04 +00:00
h_vogt 5f9f71b5a4 variable ngdebug for additional debug info 2009-09-19 12:38:03 +00:00
h_vogt 25ebed0993 .global reinstated 2009-09-16 20:58:37 +00:00
h_vogt c84522b842 prints time required for setup 2009-09-14 22:34:17 +00:00
h_vogt c25d028cbf SetAnalyse output extended 2009-09-13 19:42:19 +00:00
h_vogt 07b2828a4b comments added 2009-09-09 09:33:14 +00:00
h_vogt f0638c658f new plot options 2009-09-09 08:50:52 +00:00
h_vogt fc43943e93 vm, vi, vp, vr, vdb for ac measurement 2009-08-30 19:54:54 +00:00
h_vogt 808c78b405 examples for .meas 2009-08-30 11:08:47 +00:00
h_vogt 98e0fa7691 add dc and ac measurement 2009-08-30 10:56:50 +00:00
dwarning 635bfea173 no message 2009-08-26 06:09:13 +00:00